Terminal Aerodrome Forecast
Issued by NWS Wilmington, OH

Current Version | Previous Version | Text Only | Print | Product List | Glossary Off
Versions: 1 2 3 4 5 6 7 8 9 10 11 12 13 14 15 16 17 18 19 20 21 22 23 24 25 26 27

000
FTUS41 KILN 312221 AAA
TAFDAY
TAF AMD
KDAY 312221Z 3122/0118 27010G18KT P6SM VCTS BKN050CB
      TEMPO 3122/3123 3SM -TSRA BR BKN035CB
     FM010100 26005KT P6SM FEW080
     FM011500 29008KT P6SM SCT060=

USA.gov is the U.S. government's official web portal to all federal, state and local government web resources and services.